Portada
METAR-TAF:

METAR-TAF

Aeropuertos :

Aeropuerto Internacional de Pago Pago

Pago Pago, Islas Ultramarinas Menores de Estados Unidos

latitud: 14-20S, longitud: 170-43W, altitud: 3 m

Observación

El informe se hizo hace 11 horas y 0 minutos, a las 04:50 UTC
Viento 8 kt del este
Temperatura 28°C
Humedad 74%
Presión 1012 hPa
Visibilidad: 19.3 km
Escasas nubes a una altura de 2000 ft
Nubes dispersas a una altura de 4000 ft
Cielo nuboso a una altura de 10000 ft

METAR: NSTU 210450Z 09008KT 12SM FEW020 SCT040 BKN100 28/23 A2987 RMK SLP115 T02770232

Hora: 04:50 (15:50 UTC)

Pronóstico

El informe se hizo hace 10 horas y 23 minutos, a las 05:27 UTC
Pronóstico válido del 21 a las 06 UTC al 22 a las 06 UTC
Viento 9 kt del este
Visibilidad: 10 km
Escasas nubes a una altura de 2000 ft
Nubes dispersas a una altura de 4000 ft
Cielo nuboso a una altura de 10000 ft

TAF: NSTU 210527Z 2106/2206 09009KT P6SM FEW020 SCT040 BKN100

Observaciones y pronósticos meteorológicos de más de 4000 aeropuertos (mensajes METAR y TAF).

Los puntos amarillos y rojos representan las estaciones disponibles.

Ponga el ratón en el punto deseado para ver el nombre de la estación.

Haga clic para ver las observaciones y los pronósticos meteorológicos.

Para cambiar el mapa : haga clic en los botones verdes con una cruz de color negro para hacer un zoom, en el botón verde con un guión para alejar o en las flechas verdes para mapas adyacentes.


METAR-TAF: